This is the latest recevied weather packets stored in our database for station/object SQ5OUZ-8. If no packets are shown the sender has not sent any weather packets the latest 10 day(s).
| Time | Temp. | Humidity | Pressure | Rain* | Wind** | Luminosity | Snow |
|---|---|---|---|---|---|---|---|
| 1777728080 | 31.67° C | 16% | 1022 hPa | - | - | - | - |
| 1777726951 | 31.67° C | 17% | 1022 hPa | - | - | - | - |
| 1777725936 | 30.56° C | 18% | 1022 hPa | - | - | - | - |
| 1777724862 | 30.56° C | 18% | 1023 hPa | - | - | - | - |
| 1777723854 | 30° C | 19% | 1023 hPa | - | - | - | - |
| 1777722823 | 29.44° C | 19% | 1023 hPa | - | - | - | - |
| 1777721653 | 31.11° C | 18% | 1023 hPa | - | - | - | - |
| 1777720591 | 28.89° C | 21% | 1024 hPa | - | - | - | - |
| 1777719534 | 28.89° C | 20% | 1024 hPa | - | - | - | - |
| 1777718369 | 28.89° C | 20% | 1024 hPa | - | - | - | - |
| 1777717247 | 29.44° C | 21% | 1024 hPa | - | - | - | - |
| 1777716169 | 28.33° C | 21% | 1025 hPa | - | - | - | - |
| 1777715032 | 28.33° C | 22% | 1025 hPa | - | - | - | - |
| 1777713980 | 27.78° C | 23% | 1025 hPa | - | - | - | - |
| 1777712828 | 27.22° C | 23% | 1025 hPa | - | - | - | - |
| 1777711631 | 26.67° C | 25% | 1025 hPa | - | - | - | - |
| 1777710640 | 27.22° C | 25% | 1025 hPa | - | - | - | - |
| 1777709530 | 26.11° C | 27% | 1025 hPa | - | - | - | - |
| 1777708333 | 25° C | 29% | 1026 hPa | - | - | - | - |
| 1777707215 | 25° C | 30% | 1026 hPa | - | - | - | - |
| 1777706075 | 23.89° C | 32% | 1026 hPa | - | - | - | - |
| 1777704883 | 23.89° C | 33% | 1026 hPa | - | - | - | - |
| 1777703842 | 22.22° C | 36% | 1026 hPa | - | - | - | - |
| 1777702682 | 20.56° C | 40% | 1026 hPa | - | - | - | - |
| 1777701702 | 18.33° C | 48% | 1026 hPa | - | - | - | - |
* Rain since midnight (hover to see other rain measurements)
** Current wind speed in m/s (hover to see current wind gust speed)